MLU - Monroe Rgnl

Pirep is a free, collaborative database of all public and private airports located within the United States. All pilots are welcome to contribute, edit, and improve any airport they have local knowledge about, no registration required.
Uploaded photos will be licensed under a CC BY-SA 4.0 license. Please only upload photos you have the rights to use.
Tags
Public
Events
METAR / TAF
Car Rental
Museum
Edit Tags
Food
Camping
Lodging
Bicycles
Swimming
Golfing
Fishing
Hot Springs
Flying Clubs
Airpark
Upcoming Events
*
*
*

Where exactly on/near the airport is this event taking place?

Is there a webpage with more information for this event?

Who should be contacted for more information?

What is this event all about?

Repeat every
Description
Last updated: 2024-02-06 20:38:58 CST
Transient Parking
Fuel Location
Landing & Tie-down Fees
Crew Car Availability
Last updated: 2024-02-06 20:38:58 CST
Flying Clubs
WiFi Access
Airport Statistics
Location: Monroe, LA
Elevation: 78ft
Sectional: Memphis
Activation date: Apr 1940
Fuel: 100LL, A (prices)
Runway 04/22: 7,504ft
Runway 14/32: 6,301ft
Access: Open to the public
Current Weather — VFR
  • Weather data is strictly informational and not for flight planning purposes.
  • METAR
    2024-04-22 06:53:00 CDT
    Ceiling Wind Temperature Dewpoint Weather Visbility
    Sky clear Calm 44°F 42°F N/A 9SM
    Clouds: Scattered @ 200ft
    Raw: KMLU 221153Z 00000KT 9SM SCT002 07/06 A3027 RMK AO2 SLP251 T00670061 10094 20056 53015
  • TAF
    2024-04-22 07:00:00 CDT – 2024-04-22 10:00:00 CDT
    Ceiling Wind Weather Visbility
    Sky clear Calm N/A 6SM
    Clouds: @ ft
    Raw: KMLU 221158Z 2212/2312 00000KT P6SM SKC TEMPO 2212/2213 3SM BR SCT002 FM221500 07005KT P6SM SKC FM230000 VRB03KT P6SM SKC
  • TAF
    2024-04-22 07:00:00 CDT – 2024-04-22 08:00:00 CDT
    Ceiling Wind Weather Visbility
    Sky clear ° @ kt Mist 3SM
    Clouds: Scattered @ 200ft
    Raw: KMLU 221158Z 2212/2312 00000KT P6SM SKC TEMPO 2212/2213 3SM BR SCT002 FM221500 07005KT P6SM SKC FM230000 VRB03KT P6SM SKC
  • TAF
    2024-04-22 10:00:00 CDT – 2024-04-22 19:00:00 CDT
    Ceiling Wind Weather Visbility
    Sky clear 70° @ 5kt N/A 6SM
    Clouds: @ ft
    Raw: KMLU 221158Z 2212/2312 00000KT P6SM SKC TEMPO 2212/2213 3SM BR SCT002 FM221500 07005KT P6SM SKC FM230000 VRB03KT P6SM SKC
  • TAF
    2024-04-22 19:00:00 CDT – 2024-04-23 07:00:00 CDT
    Ceiling Wind Weather Visbility
    Sky clear Variable N/A 6SM
    Clouds: @ ft
    Raw: KMLU 221158Z 2212/2312 00000KT P6SM SKC TEMPO 2212/2213 3SM BR SCT002 FM221500 07005KT P6SM SKC FM230000 VRB03KT P6SM SKC
Click/tap to add an annotation marker to the map
Airport Webcams
No webcams added yet.
Direct links to live image URLs will be displayed inline on this page. URLs to separate webpages will be linked to.
URL:
Direct links to live image URLs will be displayed inline on this page. URLs to separate webpages will be linked to.
URL:
Remarks
  • Twys j & e east of rwy 04/22 not avbl for acr opns with over 9 psgr seats.
  • Twy e east of rwy 04/22 restricted to acft with wingspan under 90 ft. twy c turnaround btn apch end rwy 22 and twy c1 clsd to acft wingspan more than 49 ft. twy c2 clsd.
  • Bird act on and invof arpt.
  • For cd when atct is clsd ctc fort worth artcc at 817-858-7584
  • When atct clsd actvt malsr rwys 04 & 22; hirl rwy 04/22; mirl rwy 14/32; twy lgts - ctaf. papi rwys 04, 22, 14 & 32 opr consly.
Comments
Leave a comment What was your experience like at this airport?